Time;durP1;ratioP1;P1;durP2;ratioP2;P2;SDS_P1;SDS_P2;PMS_P1;PMS_P2;Temp;Humidity;BMP_temperature;BMP_pressure;BME280_temperature;BME280_humidity;BME280_pressure;Samples;Min_cycle;Max_cycle;Signal;HPM_P1;HPM_P2
2021/12/22 00:01:27;;;;;;;9.53;6.03;;;5.20;86.00;;;;;;4900595;29;20386;-67
2021/12/22 00:03:54;;;;;;;8.23;6.20;;;5.20;85.60;;;;;;4900481;29;20055;-67
2021/12/22 00:06:23;;;;;;;7.97;5.83;;;5.20;85.20;;;;;;4900521;29;20496;-67
2021/12/22 00:08:49;;;;;;;7.80;5.60;;;5.20;85.40;;;;;;4900487;29;20040;-67
2021/12/22 00:11:15;;;;;;;12.97;6.00;;;5.20;85.10;;;;;;4900303;29;20033;-67
2021/12/22 00:13:40;;;;;;;9.47;5.73;;;5.30;85.00;;;;;;4900745;29;20039;-68
2021/12/22 00:16:07;;;;;;;10.63;6.27;;;5.20;85.30;;;;;;4900257;29;20075;-68
2021/12/22 00:18:34;;;;;;;9.63;6.23;;;5.20;85.70;;;;;;4900488;29;20108;-68
2021/12/22 00:20:59;;;;;;;9.33;5.90;;;5.20;85.60;;;;;;4900121;29;20493;-67
2021/12/22 00:23:25;;;;;;;10.47;5.87;;;5.20;85.40;;;;;;4900030;29;20128;-67
2021/12/22 00:25:51;;;;;;;10.27;5.37;;;5.20;85.40;;;;;;4900212;29;20043;-67
2021/12/22 00:28:16;;;;;;;9.83;5.73;;;5.20;85.20;;;;;;4900127;29;20377;-67
2021/12/22 00:30:43;;;;;;;6.77;5.30;;;5.30;85.40;;;;;;4900181;29;20045;-67
2021/12/22 00:33:11;;;;;;;9.03;5.87;;;5.30;85.80;;;;;;4930598;29;20434;-67
2021/12/22 00:35:45;;;;;;;8.03;5.93;;;5.20;85.70;;;;;;4900106;29;20045;-67
2021/12/22 00:38:16;;;;;;;9.23;5.13;;;5.20;86.20;;;;;;4900100;29;20033;-67
2021/12/22 00:40:43;;;;;;;9.03;5.20;;;5.20;85.80;;;;;;4900117;29;20426;-67
2021/12/22 00:43:10;;;;;;;10.17;5.40;;;5.20;85.80;;;;;;4899862;29;20473;-67
2021/12/22 00:45:36;;;;;;;9.73;5.43;;;5.20;86.00;;;;;;4899196;29;20033;-68
2021/12/22 00:48:04;;;;;;;6.73;4.77;;;5.20;86.00;;;;;;4900073;29;20084;-67
2021/12/22 00:50:30;;;;;;;8.40;5.20;;;5.20;86.00;;;;;;4900113;29;20043;-67
2021/12/22 00:52:56;;;;;;;16.60;6.10;;;5.20;86.30;;;;;;4899769;29;20059;-68
2021/12/22 00:55:22;;;;;;;12.23;5.20;;;5.20;86.60;;;;;;4899664;29;20516;-67
2021/12/22 00:57:49;;;;;;;9.00;5.40;;;5.20;86.10;;;;;;4899465;29;20071;-67
2021/12/22 01:00:17;;;;;;;7.30;5.13;;;5.10;86.10;;;;;;4899843;29;20466;-67
2021/12/22 01:02:43;;;;;;;7.80;4.93;;;5.10;85.80;;;;;;4899853;29;20036;-67
2021/12/22 01:05:12;;;;;;;10.50;5.53;;;5.20;85.50;;;;;;4899553;29;20084;-67
2021/12/22 01:07:39;;;;;;;6.47;4.90;;;5.10;85.30;;;;;;4899267;29;20080;-67
2021/12/22 01:10:06;;;;;;;9.33;5.33;;;5.20;85.70;;;;;;4899282;29;20033;-67
2021/12/22 01:12:32;;;;;;;8.03;4.97;;;5.20;84.80;;;;;;4899467;29;20025;-67
2021/12/22 01:14:58;;;;;;;7.53;5.20;;;5.20;84.40;;;;;;4899549;29;20028;-67
2021/12/22 01:17:23;;;;;;;9.60;5.10;;;5.20;84.10;;;;;;4899152;29;20033;-67
2021/12/22 01:24:48;;;;;;;9.23;5.20;;;5.20;83.70;;;;;;4899454;29;20044;-67
2021/12/22 01:27:15;;;;;;;8.13;5.23;;;5.20;84.00;;;;;;4899192;29;20024;-67
2021/12/22 01:29:41;;;;;;;8.70;5.67;;;5.10;83.90;;;;;;4929616;29;20028;-67
2021/12/22 01:32:09;;;;;;;6.93;4.93;;;5.10;83.20;;;;;;4898941;29;20043;-67
2021/12/22 01:34:35;;;;;;;7.97;5.30;;;5.10;82.90;;;;;;4898937;29;20087;-67
2021/12/22 01:37:01;;;;;;;9.03;5.43;;;5.10;82.90;;;;;;4898788;29;20043;-67
2021/12/22 01:39:26;;;;;;;8.80;5.47;;;5.20;83.10;;;;;;4899004;29;20107;-67
2021/12/22 01:41:53;;;;;;;9.97;5.37;;;5.20;82.70;;;;;;4898792;29;20032;-67
2021/12/22 01:44:45;;;;;;;6.50;5.03;;;5.10;82.20;;;;;;4898837;29;20381;-67
2021/12/22 01:49:55;;;;;;;9.60;6.00;;;5.20;82.30;;;;;;4898685;29;20055;-67
2021/12/22 01:52:22;;;;;;;7.50;5.40;;;5.20;83.20;;;;;;4898445;29;20469;-67
2021/12/22 01:55:07;;;;;;;8.27;5.33;;;5.20;82.50;;;;;;4898460;29;20056;-67
2021/12/22 01:57:47;;;;;;;8.53;5.90;;;5.20;82.30;;;;;;4897049;29;20116;-68
2021/12/22 02:00:14;;;;;;;8.10;5.83;;;5.10;82.20;;;;;;4926208;29;20389;-67
2021/12/22 02:02:40;;;;;;;8.10;5.07;;;5.10;81.90;;;;;;4895822;29;20036;-67
2021/12/22 02:05:06;;;;;;;7.87;5.80;;;5.10;82.10;;;;;;4897239;29;20035;-68
2021/12/22 02:07:32;;;;;;;10.10;6.17;;;5.10;81.90;;;;;;4898274;29;20032;-67
2021/12/22 02:12:25;;;;;;;11.23;6.37;;;5.20;82.10;;;;;;4898131;29;20080;-67
2021/12/22 02:14:51;;;;;;;10.10;5.93;;;5.20;81.30;;;;;;4898189;29;20044;-67
2021/12/22 02:17:17;;;;;;;9.20;6.30;;;5.20;81.10;;;;;;4897944;29;20036;-67
2021/12/22 02:19:44;;;;;;;8.57;5.80;;;5.20;81.00;;;;;;4898319;29;20465;-67
2021/12/22 02:22:13;;;;;;;9.97;5.63;;;5.10;80.90;;;;;;4897718;29;20088;-67
2021/12/22 02:24:44;;;;;;;10.47;6.10;;;5.10;80.80;;;;;;4897892;29;20032;-67
2021/12/22 02:27:19;;;;;;;8.77;6.07;;;5.10;80.80;;;;;;4897943;29;20111;-67
2021/12/22 02:29:47;;;;;;;8.83;5.30;;;5.10;80.60;;;;;;4897698;29;20493;-67
2021/12/22 02:32:31;;;;;;;9.17;5.30;;;5.10;80.70;;;;;;4897934;29;20029;-68
2021/12/22 02:35:02;;;;;;;6.73;5.37;;;5.00;80.00;;;;;;4897878;29;20036;-67
2021/12/22 02:37:29;;;;;;;9.47;5.77;;;5.10;80.30;;;;;;4897820;29;20105;-68
2021/12/22 02:40:08;;;;;;;8.63;5.87;;;5.00;80.10;;;;;;4898041;29;20029;-67
2021/12/22 02:42:34;;;;;;;8.73;5.70;;;5.00;79.80;;;;;;4897601;29;20092;-67
2021/12/22 02:45:08;;;;;;;12.73;7.37;;;5.00;79.80;;;;;;4898077;29;20393;-67
2021/12/22 02:47:34;;;;;;;8.37;6.00;;;5.10;79.70;;;;;;4897960;29;20389;-67
2021/12/22 02:49:59;;;;;;;7.33;5.50;;;5.00;79.80;;;;;;4897835;29;20037;-67
2021/12/22 02:52:32;;;;;;;8.73;5.80;;;5.00;79.20;;;;;;4897300;29;20439;-67
2021/12/22 02:54:58;;;;;;;8.60;5.57;;;5.00;79.00;;;;;;4897819;29;20051;-67
2021/12/22 02:57:32;;;;;;;9.93;5.63;;;5.00;78.30;;;;;;4897730;29;20039;-67
2021/12/22 03:02:44;;;;;;;11.13;5.80;;;5.00;78.00;;;;;;4898119;29;20074;-67
2021/12/22 03:05:10;;;;;;;9.27;5.80;;;5.00;77.60;;;;;;4897756;29;20508;-67
2021/12/22 03:07:37;;;;;;;8.90;6.10;;;5.00;78.10;;;;;;4898748;29;20036;-67
2021/12/22 03:10:13;;;;;;;9.03;6.67;;;5.00;78.50;;;;;;4901668;29;20486;-67
2021/12/22 03:12:40;;;;;;;9.70;6.20;;;5.00;79.10;;;;;;4901472;29;20076;-67
2021/12/22 03:15:08;;;;;;;8.60;6.13;;;5.00;79.50;;;;;;4901444;29;20025;-67
2021/12/22 03:17:34;;;;;;;9.93;6.27;;;5.00;78.90;;;;;;4901309;29;20505;-68
2021/12/22 03:20:01;;;;;;;9.67;6.40;;;4.90;78.60;;;;;;4901397;29;20030;-66
2021/12/22 03:22:26;;;;;;;9.90;6.83;;;4.90;78.40;;;;;;4901423;29;20562;-67
2021/12/22 03:24:52;;;;;;;11.60;7.07;;;4.90;77.70;;;;;;4901166;29;20109;-67
2021/12/22 03:27:19;;;;;;;9.93;6.80;;;4.90;77.90;;;;;;4901121;29;20032;-66
2021/12/22 03:29:47;;;;;;;9.50;7.17;;;4.90;77.40;;;;;;4901439;29;20436;-67
2021/12/22 03:32:13;;;;;;;10.57;6.90;;;4.90;77.60;;;;;;4901179;29;20097;-67
2021/12/22 03:34:41;;;;;;;11.40;8.50;;;4.90;77.90;;;;;;4901160;29;20021;-67
2021/12/22 03:37:08;;;;;;;11.00;7.57;;;4.80;77.40;;;;;;4901242;29;20040;-67
2021/12/22 03:39:34;;;;;;;11.70;8.00;;;4.90;77.40;;;;;;4901148;29;20081;-67
2021/12/22 03:42:00;;;;;;;11.47;8.00;;;4.90;76.50;;;;;;4901200;29;20041;-67
2021/12/22 03:44:25;;;;;;;10.40;7.17;;;4.80;76.40;;;;;;4900854;29;20025;-67
2021/12/22 03:46:51;;;;;;;12.87;8.00;;;4.80;76.20;;;;;;4900995;29;20033;-67
2021/12/22 03:49:18;;;;;;;10.50;7.67;;;4.90;76.00;;;;;;4900895;29;20385;-67
2021/12/22 03:51:44;;;;;;;11.47;7.83;;;4.90;75.60;;;;;;4900715;29;20108;-67
2021/12/22 03:54:11;;;;;;;10.57;7.37;;;4.90;75.80;;;;;;4900471;29;20622;-67
2021/12/22 03:56:37;;;;;;;15.30;7.67;;;4.90;75.50;;;;;;4900651;29;20044;-67
2021/12/22 03:59:04;;;;;;;11.47;7.50;;;4.90;75.30;;;;;;4900984;29;20024;-67
2021/12/22 04:01:30;;;;;;;11.03;7.67;;;4.90;75.40;;;;;;4900789;29;20528;-67
2021/12/22 04:04:00;;;;;;;12.73;7.63;;;4.90;75.70;;;;;;4900583;29;20036;-67
2021/12/22 04:06:25;;;;;;;11.17;8.23;;;4.90;75.40;;;;;;4900565;29;20128;-67
2021/12/22 04:08:51;;;;;;;11.60;8.03;;;4.90;76.00;;;;;;4900680;29;20056;-67
2021/12/22 04:11:17;;;;;;;11.17;8.50;;;4.90;76.70;;;;;;4900513;29;20425;-67
2021/12/22 04:13:42;;;;;;;12.50;8.27;;;5.00;76.80;;;;;;4900241;29;20077;-67
2021/12/22 04:16:08;;;;;;;14.47;8.67;;;5.00;76.70;;;;;;4900194;29;20589;-67
2021/12/22 04:18:34;;;;;;;12.73;8.37;;;5.00;77.00;;;;;;4900065;29;20445;-67
2021/12/22 04:20:59;;;;;;;11.40;8.50;;;5.00;76.70;;;;;;4899608;29;20080;-67
2021/12/22 04:23:25;;;;;;;12.43;8.60;;;5.00;76.50;;;;;;4900193;29;20513;-67
2021/12/22 04:25:51;;;;;;;15.27;8.33;;;4.90;75.30;;;;;;4900193;29;20533;-67
2021/12/22 04:28:17;;;;;;;12.23;8.60;;;4.90;74.60;;;;;;4900043;29;20079;-67
2021/12/22 04:30:48;;;;;;;10.77;8.50;;;4.80;75.60;;;;;;4899914;29;20024;-67
2021/12/22 04:33:14;;;;;;;10.93;8.90;;;4.80;75.40;;;;;;4900084;29;20033;-67
2021/12/22 04:35:40;;;;;;;13.50;9.27;;;4.80;75.40;;;;;;4900328;29;20039;-67
2021/12/22 04:38:06;;;;;;;11.77;8.70;;;4.80;75.30;;;;;;4899986;29;20051;-67
2021/12/22 04:40:32;;;;;;;13.90;9.70;;;4.80;75.30;;;;;;4900016;29;20016;-67
2021/12/22 04:42:58;;;;;;;12.57;8.90;;;4.80;75.20;;;;;;4899829;29;20107;-67
2021/12/22 04:45:24;;;;;;;12.27;8.93;;;4.80;75.20;;;;;;4899739;29;20051;-67
2021/12/22 04:47:51;;;;;;;13.87;10.03;;;4.80;75.00;;;;;;4899890;29;20061;-67
2021/12/22 04:50:19;;;;;;;14.47;9.60;;;4.80;75.10;;;;;;4899782;29;20032;-67
2021/12/22 04:52:59;;;;;;;12.90;9.37;;;4.80;75.20;;;;;;4899486;29;20056;-67
2021/12/22 04:55:26;;;;;;;13.73;9.13;;;4.80;74.80;;;;;;4899631;29;20048;-67
2021/12/22 04:57:54;;;;;;;16.30;9.67;;;4.80;74.90;;;;;;4899652;29;20065;-67
2021/12/22 05:00:21;;;;;;;13.00;9.80;;;4.70;74.60;;;;;;4899699;29;20029;-67
2021/12/22 05:02:47;;;;;;;12.97;9.70;;;4.70;75.10;;;;;;4899428;29;20072;-67
2021/12/22 05:05:13;;;;;;;14.13;8.90;;;4.70;75.10;;;;;;4899458;29;20028;-67
2021/12/22 05:07:38;;;;;;;11.97;8.93;;;4.60;75.40;;;;;;4899548;29;20560;-67
2021/12/22 05:10:07;;;;;;;12.03;9.27;;;4.50;75.10;;;;;;4899408;29;20456;-67
2021/12/22 05:12:33;;;;;;;12.67;8.90;;;4.50;75.60;;;;;;4899272;29;20029;-67
2021/12/22 05:14:59;;;;;;;13.97;9.50;;;4.50;75.70;;;;;;4899443;29;20028;-67
2021/12/22 05:17:39;;;;;;;13.37;9.53;;;4.40;76.00;;;;;;4899507;29;20500;-67
2021/12/22 05:20:06;;;;;;;12.37;8.87;;;4.40;76.00;;;;;;4899056;29;20059;-67
2021/12/22 05:22:33;;;;;;;13.27;9.10;;;4.40;76.30;;;;;;4898914;29;20477;-67
2021/12/22 05:24:59;;;;;;;13.27;9.07;;;4.40;75.70;;;;;;4899271;29;20450;-67
2021/12/22 05:27:25;;;;;;;12.63;9.70;;;4.40;75.30;;;;;;4899120;29;20044;-66
2021/12/22 05:29:51;;;;;;;13.37;9.47;;;4.50;75.10;;;;;;4899107;29;20401;-67
2021/12/22 05:32:17;;;;;;;13.63;9.70;;;4.50;74.90;;;;;;4898827;29;20028;-66
2021/12/22 05:34:43;;;;;;;13.70;9.73;;;4.60;74.20;;;;;;4899110;29;20039;-67
2021/12/22 05:37:08;;;;;;;11.43;8.70;;;4.60;74.20;;;;;;4898927;29;20470;-67
2021/12/22 05:39:34;;;;;;;14.87;9.03;;;4.60;74.60;;;;;;4898851;29;20385;-67
2021/12/22 05:42:01;;;;;;;14.63;9.53;;;4.60;74.60;;;;;;4898861;29;20052;-67
2021/12/22 05:44:27;;;;;;;12.93;9.17;;;4.60;74.70;;;;;;4898725;29;20492;-67
2021/12/22 05:46:53;;;;;;;11.93;8.77;;;4.70;75.30;;;;;;4898711;29;20025;-67
2021/12/22 05:49:19;;;;;;;14.63;9.97;;;4.70;75.20;;;;;;4898758;29;20454;-68
2021/12/22 05:51:44;;;;;;;12.77;9.67;;;4.80;75.20;;;;;;4898669;29;20033;-67
2021/12/22 05:54:11;;;;;;;13.60;8.97;;;4.80;75.00;;;;;;4898624;29;20056;-68
2021/12/22 05:56:36;;;;;;;14.07;9.77;;;4.70;75.30;;;;;;4898458;29;20072;-69
2021/12/22 05:59:03;;;;;;;14.53;9.87;;;4.60;75.50;;;;;;4898513;29;20532;-68
2021/12/22 06:01:30;;;;;;;12.63;9.40;;;4.60;75.10;;;;;;4898584;29;20068;-70
2021/12/22 06:03:56;;;;;;;12.90;9.33;;;4.60;75.20;;;;;;4898459;29;20032;-68
2021/12/22 06:06:22;;;;;;;13.67;9.80;;;4.60;74.90;;;;;;4898589;29;20385;-68
2021/12/22 06:08:48;;;;;;;13.27;9.30;;;4.60;74.90;;;;;;4898483;29;20033;-68
2021/12/22 06:11:13;;;;;;;15.63;9.53;;;4.60;75.70;;;;;;4898319;29;20039;-68
2021/12/22 06:13:39;;;;;;;16.60;10.40;;;4.50;75.40;;;;;;4898106;29;20032;-68
2021/12/22 06:16:05;;;;;;;15.70;9.90;;;4.50;74.80;;;;;;4898196;29;20059;-69
2021/12/22 06:18:31;;;;;;;14.60;9.90;;;4.60;75.00;;;;;;4898261;29;20397;-68
2021/12/22 06:20:58;;;;;;;13.03;9.77;;;4.60;73.80;;;;;;4898419;29;20035;-69
2021/12/22 06:23:23;;;;;;;15.93;9.80;;;4.60;73.90;;;;;;4898107;29;20032;-68
2021/12/22 06:25:49;;;;;;;17.00;9.90;;;4.60;73.80;;;;;;4898191;29;20067;-69
2021/12/22 06:28:15;;;;;;;16.47;9.80;;;4.70;73.70;;;;;;4898448;29;20036;-68
2021/12/22 06:30:40;;;;;;;14.00;9.57;;;4.70;72.80;;;;;;4898076;29;20035;-68
2021/12/22 06:33:06;;;;;;;16.23;9.77;;;4.70;72.80;;;;;;4897965;29;20473;-68
2021/12/22 06:35:32;;;;;;;16.37;9.30;;;4.70;72.60;;;;;;4898002;29;20029;-68
2021/12/22 06:37:57;;;;;;;15.50;10.50;;;4.70;72.00;;;;;;4898163;29;20041;-67
2021/12/22 06:40:23;;;;;;;14.20;9.57;;;4.70;72.10;;;;;;4898228;29;20031;-67
2021/12/22 06:42:49;;;;;;;15.20;10.23;;;4.60;72.20;;;;;;4900612;29;20092;-67
2021/12/22 06:45:15;;;;;;;18.10;10.13;;;4.60;72.30;;;;;;4904244;29;20028;-67
2021/12/22 06:47:41;;;;;;;15.87;10.67;;;4.60;72.10;;;;;;4904187;29;20055;-67
2021/12/22 06:50:08;;;;;;;16.73;9.60;;;4.60;72.30;;;;;;4902304;29;20036;-68
2021/12/22 06:52:34;;;;;;;15.80;10.63;;;4.60;72.20;;;;;;4904069;29;20043;-68
2021/12/22 06:55:00;;;;;;;15.43;10.43;;;4.50;72.30;;;;;;4903969;29;20052;-67
2021/12/22 06:57:26;;;;;;;15.53;10.20;;;4.60;72.60;;;;;;4903930;29;20076;-68
2021/12/22 06:59:52;;;;;;;17.03;10.10;;;4.60;72.40;;;;;;4904323;29;20052;-67
2021/12/22 07:02:18;;;;;;;14.37;9.70;;;4.50;72.90;;;;;;4903462;29;20032;-68
2021/12/22 07:04:43;;;;;;;13.93;9.47;;;4.40;73.10;;;;;;4903795;29;20124;-67
2021/12/22 07:07:09;;;;;;;13.10;9.30;;;4.40;72.90;;;;;;4903912;29;20370;-68
2021/12/22 07:09:35;;;;;;;16.47;9.70;;;4.40;73.10;;;;;;4898759;29;20041;-66
2021/12/22 07:12:00;;;;;;;16.50;9.83;;;4.40;73.20;;;;;;4884638;29;20367;-68
2021/12/22 07:14:26;;;;;;;18.47;11.13;;;4.30;73.00;;;;;;4885164;29;20056;-68
2021/12/22 07:16:52;;;;;;;15.33;9.37;;;4.30;73.20;;;;;;4884901;29;20052;-73
2021/12/22 07:19:18;;;;;;;14.63;9.80;;;4.30;73.50;;;;;;4885500;29;20032;-70
2021/12/22 07:21:44;;;;;;;15.53;10.67;;;4.30;74.10;;;;;;4885094;29;20037;-71
2021/12/22 07:24:10;;;;;;;17.57;12.60;;;4.20;75.70;;;;;;4885533;29;20085;-71
2021/12/22 07:26:38;;;;;;;17.63;10.87;;;4.20;76.30;;;;;;4885517;29;20040;-71
2021/12/22 07:29:04;;;;;;;17.73;10.43;;;4.30;75.50;;;;;;4884999;29;20101;-78
2021/12/22 07:31:30;;;;;;;19.13;10.20;;;4.30;74.80;;;;;;4885080;29;20104;-71
2021/12/22 07:34:10;;;;;;;24.47;10.30;;;4.40;74.40;;;;;;4884980;29;20520;-71
2021/12/22 07:36:43;;;;;;;14.67;9.37;;;4.40;73.00;;;;;;4885362;29;20406;-72
2021/12/22 07:39:09;;;;;;;15.33;9.43;;;4.50;72.70;;;;;;4885108;29;20041;-72
2021/12/22 07:41:35;;;;;;;14.53;9.27;;;4.60;72.30;;;;;;4885307;29;20041;-71
2021/12/22 07:44:00;;;;;;;12.53;8.20;;;4.70;71.70;;;;;;4885155;29;20029;-72
2021/12/22 07:46:26;;;;;;;12.57;8.47;;;4.70;71.10;;;;;;4884925;29;20069;-72
2021/12/22 07:48:52;;;;;;;18.53;8.37;;;4.80;70.70;;;;;;4885058;29;20057;-70
2021/12/22 07:51:18;;;;;;;11.47;7.57;;;4.80;70.10;;;;;;4884998;29;20347;-71
2021/12/22 07:53:44;;;;;;;13.60;7.97;;;4.80;70.00;;;;;;4883568;29;20059;-70
2021/12/22 07:56:10;;;;;;;13.30;8.33;;;5.00;69.90;;;;;;4881702;29;20040;-72
2021/12/22 07:58:36;;;;;;;17.23;8.20;;;5.00;69.00;;;;;;4882173;29;20029;-71
2021/12/22 08:01:02;;;;;;;14.20;8.23;;;5.10;69.40;;;;;;4896476;29;20025;-69
2021/12/22 08:03:27;;;;;;;10.93;7.40;;;5.20;68.70;;;;;;4882215;29;20029;-68
2021/12/22 08:05:53;;;;;;;13.27;6.83;;;5.20;67.90;;;;;;4881615;29;20029;-71
2021/12/22 08:08:19;;;;;;;11.90;7.87;;;5.30;67.80;;;;;;4881871;29;20036;-70
2021/12/22 08:10:48;;;;;;;10.43;7.00;;;5.30;67.50;;;;;;4881832;29;20025;-69
2021/12/22 08:13:15;;;;;;;13.57;8.30;;;5.40;67.20;;;;;;4881722;29;20030;-70
2021/12/22 08:15:42;;;;;;;13.33;7.93;;;5.50;67.60;;;;;;4882027;29;20081;-72
2021/12/22 08:18:08;;;;;;;16.10;9.67;;;5.50;66.60;;;;;;4881586;29;20068;-72
2021/12/22 08:20:34;;;;;;;19.57;10.57;;;5.60;66.20;;;;;;4896122;29;20426;-72
2021/12/22 08:22:59;;;;;;;16.00;10.30;;;5.60;65.10;;;;;;4881666;29;20039;-70
2021/12/22 08:25:25;;;;;;;20.77;11.13;;;5.60;65.20;;;;;;4881362;29;20045;-69
2021/12/22 08:27:52;;;;;;;18.97;10.87;;;5.70;65.40;;;;;;4881417;29;20022;-69
2021/12/22 08:30:17;;;;;;;18.03;10.83;;;5.70;65.70;;;;;;4881379;29;20037;-70
2021/12/22 08:32:43;;;;;;;16.47;10.33;;;5.80;65.60;;;;;;4881639;29;20040;-69
2021/12/22 08:35:11;;;;;;;17.63;10.60;;;5.80;65.10;;;;;;4881776;29;20112;-69
2021/12/22 08:40:23;;;;;;;16.37;9.80;;;5.60;65.50;;;;;;4881450;29;20053;-70
2021/12/22 08:42:50;;;;;;;22.60;10.93;;;5.60;65.30;;;;;;4881488;29;20037;-70
2021/12/22 08:45:17;;;;;;;15.30;9.80;;;5.60;65.60;;;;;;4880969;29;20569;-70
2021/12/22 08:47:44;;;;;;;19.47;10.57;;;5.60;66.20;;;;;;4880793;29;20064;-70
2021/12/22 08:50:11;;;;;;;14.10;9.30;;;5.60;66.70;;;;;;4880547;29;20473;-70
2021/12/22 08:52:37;;;;;;;14.93;9.57;;;5.70;65.80;;;;;;4880800;29;20458;-70
2021/12/22 08:55:04;;;;;;;15.97;9.00;;;5.70;66.10;;;;;;4894745;29;20060;-71
2021/12/22 08:57:29;;;;;;;13.70;8.87;;;5.70;65.30;;;;;;4880712;29;20056;-70
2021/12/22 08:59:55;;;;;;;12.83;8.23;;;5.80;65.30;;;;;;4880899;29;20025;-70
2021/12/22 09:02:21;;;;;;;15.50;9.90;;;5.90;64.70;;;;;;4880637;29;20033;-70
2021/12/22 09:04:47;;;;;;;15.30;8.80;;;5.90;64.40;;;;;;4880566;29;20040;-70
2021/12/22 09:07:13;;;;;;;16.93;8.23;;;6.00;65.00;;;;;;4880638;29;20044;-70
2021/12/22 09:09:39;;;;;;;14.10;8.10;;;6.00;64.30;;;;;;4880702;29;20517;-69
2021/12/22 09:12:07;;;;;;;18.77;7.97;;;6.00;64.60;;;;;;4880500;29;20037;-70
2021/12/22 09:14:33;;;;;;;15.37;8.53;;;6.00;64.00;;;;;;4880439;29;20053;-69
2021/12/22 09:16:58;;;;;;;15.70;8.93;;;6.10;64.40;;;;;;4880475;29;20037;-70
2021/12/22 09:19:24;;;;;;;12.97;8.93;;;6.10;64.50;;;;;;4880527;29;20037;-69
2021/12/22 09:21:51;;;;;;;14.17;8.03;;;6.10;63.90;;;;;;4880624;29;20060;-70
2021/12/22 09:24:17;;;;;;;14.00;8.17;;;6.10;63.70;;;;;;4880320;29;20029;-69
2021/12/22 09:26:43;;;;;;;11.20;7.57;;;6.20;64.30;;;;;;4880309;29;20478;-69
2021/12/22 09:29:10;;;;;;;10.47;7.20;;;6.30;63.70;;;;;;4880138;29;20068;-70
2021/12/22 09:31:35;;;;;;;15.40;8.40;;;6.30;63.30;;;;;;4879946;29;20112;-69
2021/12/22 09:34:01;;;;;;;12.47;7.33;;;6.40;63.10;;;;;;4880302;29;20116;-69
2021/12/22 09:36:27;;;;;;;13.30;8.03;;;6.40;62.00;;;;;;4880102;29;20045;-70
2021/12/22 09:38:52;;;;;;;16.13;8.67;;;6.40;62.10;;;;;;4880396;29;20117;-69
2021/12/22 09:41:18;;;;;;;11.27;7.90;;;6.50;62.20;;;;;;4880268;29;20389;-69
2021/12/22 09:43:44;;;;;;;13.77;8.00;;;6.50;61.30;;;;;;4880039;29;20041;-69
2021/12/22 09:46:15;;;;;;;11.10;7.47;;;6.40;61.70;;;;;;4880036;29;20029;-69
2021/12/22 09:53:54;;;;;;;13.63;8.00;;;6.50;62.10;;;;;;4879827;29;20048;-69
2021/12/22 09:56:23;;;;;;;13.33;8.03;;;6.50;61.20;;;;;;4880051;29;20033;-69
2021/12/22 09:58:50;;;;;;;10.50;7.70;;;6.60;62.50;;;;;;4879729;29;20025;-69
2021/12/22 10:01:23;;;;;;;11.90;7.73;;;6.70;61.50;;;;;;4879791;29;20025;-68
2021/12/22 10:03:58;;;;;;;15.93;8.25;;;6.70;61.60;;;;;;4879760;29;20366;-68
2021/12/22 10:06:25;;;;;;;11.27;7.50;;;6.80;61.60;;;;;;4880115;29;20032;-68
2021/12/22 10:09:03;;;;;;;14.53;7.80;;;6.90;62.90;;;;;;4879514;29;20399;-68
2021/12/22 10:11:32;;;;;;;53.63;9.53;;;7.00;62.90;;;;;;4879475;29;20486;-70
2021/12/22 10:13:57;;;;;;;10.40;7.43;;;7.00;63.90;;;;;;4878334;29;20056;-69
2021/12/22 10:16:26;;;;;;;11.63;7.47;;;7.00;60.50;;;;;;4890480;29;20486;-71
2021/12/22 10:19:07;;;;;;;40.30;13.53;;;7.00;61.60;;;;;;4875976;29;20363;-71
2021/12/22 10:21:36;;;;;;;14.87;8.43;;;7.10;65.10;;;;;;4878042;29;20092;-72
2021/12/22 10:24:05;;;;;;;14.63;8.03;;;7.20;62.40;;;;;;4879299;29;20033;-72
2021/12/22 10:26:30;;;;;;;11.73;7.63;;;7.20;61.80;;;;;;4879200;29;20494;-70
2021/12/22 10:29:04;;;;;;;13.07;7.27;;;7.30;59.80;;;;;;4879265;29;20082;-72
2021/12/22 10:31:39;;;;;;;14.30;7.97;;;7.30;58.60;;;;;;4879339;29;20080;-70
2021/12/22 10:34:07;;;;;;;12.20;7.93;;;7.30;58.70;;;;;;4878990;29;20374;-71
2021/12/22 10:36:52;;;;;;;13.20;7.93;;;7.30;58.80;;;;;;4876729;29;20108;-71
2021/12/22 10:39:38;;;;;;;12.27;7.03;;;7.40;59.40;;;;;;4879110;29;20029;-72
2021/12/22 10:42:09;;;;;;;11.60;7.07;;;7.40;58.70;;;;;;4878808;29;20505;-71
2021/12/22 10:44:42;;;;;;;11.87;7.00;;;7.40;58.30;;;;;;4878990;29;20107;-71
2021/12/22 10:47:22;;;;;;;12.43;7.40;;;7.40;58.40;;;;;;4879070;29;20512;-70
2021/12/22 10:50:10;;;;;;;14.93;7.47;;;7.40;58.80;;;;;;4879079;29;20041;-71
2021/12/22 10:52:35;;;;;;;14.93;8.40;;;7.40;59.80;;;;;;4878510;29;20036;-71
2021/12/22 10:55:13;;;;;;;11.80;7.57;;;7.40;61.40;;;;;;4878377;29;20076;-70
2021/12/22 10:57:42;;;;;;;19.03;9.00;;;7.40;59.50;;;;;;4878616;29;20037;-69
2021/12/22 11:00:24;;;;;;;107.80;26.43;;;7.40;59.10;;;;;;4877405;29;20581;-71
2021/12/22 11:03:07;;;;;;;15.13;7.23;;;7.40;61.50;;;;;;4876306;29;20025;-69
2021/12/22 11:05:45;;;;;;;14.30;7.47;;;7.40;59.30;;;;;;4877625;29;20033;-69
2021/12/22 11:08:23;;;;;;;12.33;7.60;;;7.30;58.60;;;;;;4878521;29;20073;-70
2021/12/22 11:10:50;;;;;;;13.97;7.50;;;7.30;58.90;;;;;;4879075;29;20037;-70
2021/12/22 11:13:24;;;;;;;12.60;7.30;;;7.20;58.70;;;;;;4878875;29;20036;-69
2021/12/22 11:15:51;;;;;;;12.27;7.30;;;7.20;58.90;;;;;;4878568;29;20175;-71
2021/12/22 11:18:27;;;;;;;13.30;7.20;;;7.30;58.80;;;;;;4878555;29;20486;-72
2021/12/22 11:21:29;;;;;;;13.37;7.40;;;7.30;59.60;;;;;;4878330;29;20057;-73
2021/12/22 11:23:55;;;;;;;16.70;7.40;;;7.40;59.10;;;;;;4878697;29;20037;-69
2021/12/22 11:26:21;;;;;;;16.47;6.93;;;7.40;60.10;;;;;;4878777;29;20036;-72
2021/12/22 11:28:48;;;;;;;11.83;6.47;;;7.50;59.40;;;;;;4880096;29;20033;-70
2021/12/22 11:31:14;;;;;;;12.33;7.00;;;7.60;60.30;;;;;;4884937;29;20490;-70
2021/12/22 11:33:41;;;;;;;26.60;12.60;;;7.60;61.60;;;;;;4882189;29;20032;-71
2021/12/22 11:36:10;;;;;;;11.20;6.83;;;7.70;60.20;;;;;;4881954;29;20072;-70
2021/12/22 11:38:36;;;;;;;12.27;7.30;;;7.90;58.80;;;;;;4882074;29;20049;-70
2021/12/22 11:41:15;;;;;;;31.73;11.50;;;8.00;58.30;;;;;;4882496;29;20021;-70
2021/12/22 11:43:42;;;;;;;15.40;7.10;;;8.10;58.80;;;;;;4896438;29;20029;-69
2021/12/22 11:46:08;;;;;;;11.87;7.67;;;8.20;58.70;;;;;;4881903;29;20025;-72
2021/12/22 11:48:36;;;;;;;9.83;6.70;;;8.20;58.70;;;;;;4882208;29;20033;-71
2021/12/22 11:51:02;;;;;;;11.73;6.60;;;8.30;56.80;;;;;;4881387;29;20021;-71
2021/12/22 11:53:49;;;;;;;8.77;6.40;;;8.30;56.00;;;;;;4881197;29;20053;-71
2021/12/22 11:56:39;;;;;;;9.07;6.77;;;8.10;56.20;;;;;;4887713;29;20025;-70
2021/12/22 11:59:06;;;;;;;10.60;7.13;;;8.10;57.20;;;;;;4898468;29;20029;-69
2021/12/22 12:01:32;;;;;;;10.53;6.83;;;8.00;56.70;;;;;;4899525;29;20039;-71
2021/12/22 12:04:14;;;;;;;11.73;6.73;;;8.00;56.90;;;;;;4900112;29;20036;-70
2021/12/22 12:06:48;;;;;;;10.97;7.03;;;8.00;56.70;;;;;;4899975;29;20035;-70
2021/12/22 12:09:14;;;;;;;12.27;7.20;;;8.00;56.00;;;;;;4900354;29;20029;-69
2021/12/22 12:14:31;;;;;;;10.23;6.77;;;7.80;56.30;;;;;;4899937;29;20059;-71
2021/12/22 12:23:30;;;;;;;12.97;7.00;;;7.70;57.40;;;;;;4900252;29;20088;-70
2021/12/22 12:26:05;;;;;;;11.17;7.13;;;7.70;57.60;;;;;;4899932;29;20040;-71
2021/12/22 12:28:44;;;;;;;10.03;7.13;;;7.80;57.50;;;;;;4899862;29;20144;-70
2021/12/22 12:31:09;;;;;;;12.07;7.13;;;7.80;57.30;;;;;;4900022;29;20085;-71
2021/12/22 12:33:45;;;;;;;13.57;7.00;;;7.80;56.90;;;;;;4899649;29;20481;-72
2021/12/22 12:36:13;;;;;;;8.83;6.33;;;7.80;56.80;;;;;;4899781;29;20028;-71
2021/12/22 12:38:45;;;;;;;13.70;7.20;;;7.80;57.10;;;;;;4899434;29;20040;-71
2021/12/22 12:41:13;;;;;;;17.00;6.73;;;7.90;56.90;;;;;;4898792;29;20017;-70
2021/12/22 12:43:49;;;;;;;15.10;7.30;;;7.90;56.50;;;;;;4899347;29;20020;-71
2021/12/22 12:46:21;;;;;;;11.60;6.80;;;7.90;56.80;;;;;;4897011;29;20561;-71
2021/12/22 12:48:49;;;;;;;10.30;6.47;;;7.90;56.60;;;;;;4896607;29;20112;-70
2021/12/22 12:51:29;;;;;;;11.70;6.60;;;7.90;56.70;;;;;;4898189;29;20025;-70
2021/12/22 12:53:58;;;;;;;11.20;7.23;;;7.90;56.30;;;;;;4899048;29;20060;-71
2021/12/22 12:56:31;;;;;;;13.47;6.80;;;7.90;56.30;;;;;;4914008;29;20402;-71
2021/12/22 12:59:06;;;;;;;15.13;7.22;;;7.90;55.90;;;;;;4899490;29;20028;-71
2021/12/22 13:01:47;;;;;;;11.37;6.90;;;7.90;55.80;;;;;;4899411;29;20112;-71
2021/12/22 13:04:39;;;;;;;10.80;6.60;;;7.90;56.40;;;;;;4899796;29;20374;-71
2021/12/22 13:07:07;;;;;;;15.70;7.23;;;7.90;57.30;;;;;;4896955;29;20033;-71
2021/12/22 13:09:41;;;;;;;12.37;6.97;;;7.90;56.20;;;;;;4899252;29;20045;-72
2021/12/22 13:17:26;;;;;;;10.63;6.77;;;7.70;56.90;;;;;;4899173;29;20083;-71
2021/12/22 13:19:55;;;;;;;12.37;7.53;;;7.70;56.50;;;;;;4899006;29;20474;-71
2021/12/22 13:22:21;;;;;;;12.73;7.33;;;7.70;56.40;;;;;;4899228;29;20024;-71
2021/12/22 13:24:47;;;;;;;14.33;6.83;;;7.70;56.70;;;;;;4898020;29;20031;-71
2021/12/22 13:27:28;;;;;;;11.40;6.70;;;7.70;56.40;;;;;;4899347;29;20029;-71
2021/12/22 13:30:04;;;;;;;14.73;6.83;;;7.70;57.20;;;;;;4899315;29;20025;-71